KRHI

Rhinelander-Oneida County Airport

Rhinelander, Wisconsin, USA
KRHI 210520Z 2106/2206 07003KT P6SM SCT250 FM211500 09007KT P6SM SCT060 FM220100 08002KT P6SM SKC
Issued Valid From Valid To
Jun-21 @ 05:20 UTC
(5 hours ago)
Jun-21 @ 06:00 UTC
(4 hours ago)
Jun-22 @ 06:00 UTC
(in 20 hours)
Jun-21 @ 06:00 to Jun-21 @ 15:00
KRHI 210520Z 2106/2206 07003KT P6SM SCT250
Wind Visibility Clouds
70° at 3 knots Greater than 6 miles
  • Scattered at 25,000' AGL
From Jun-21 @ 15:00 to Jun-22 @ 01:00
FM211500 09007KT P6SM SCT060
Wind Visibility Clouds
90° at 7 knots Greater than 6 miles
  • Scattered at 6,000' AGL
From Jun-22 @ 01:00 to Jun-22 @ 06:00
FM220100 08002KT P6SM SKC
Wind Visibility Clouds
80° at 2 knots Greater than 6 miles
  • Clear skies
KRHI 210520Z 2106/2206 07003KT P6SM SCT250 FM211500 09007KT P6SM SCT060 FM220100 08002KT P6SM SKC
Issued Jun-21 @ 05:20 UTC
(5 hours ago)
Valid From Jun-21 @ 06:00 UTC
(4 hours ago)
Valid To Jun-22 @ 06:00 UTC
(in 20 hours)
Jun-21 @ 06:00 - Jun-21 @ 15:00
Wind Visibility
70° at 3 knots Greater than 6 miles
Clouds
  • Scattered at 25,000' AGL
From Jun-21 @ 15:00 - Jun-22 @ 01:00
Wind Visibility
90° at 7 knots Greater than 6 miles
Clouds
  • Scattered at 6,000' AGL
From Jun-22 @ 01:00 - Jun-22 @ 06:00
Wind Visibility
80° at 2 knots Greater than 6 miles
Clouds
  • Clear skies